sensor_id;sensor_type;location;lat;lon;timestamp;pressure;altitude;pressure_sealevel;temperature;humidity
4133;BME280;2080;51.038;7.008;2022-07-09T00:00:46;76343.66;;;-142.53;100.00
4133;BME280;2080;51.038;7.008;2022-07-09T00:03:14;76347.53;;;-142.53;100.00
4133;BME280;2080;51.038;7.008;2022-07-09T00:05:39;76355.31;;;-142.53;100.00
4133;BME280;2080;51.038;7.008;2022-07-09T00:08:05;76366.97;;;-142.53;100.00
4133;BME280;2080;51.038;7.008;2022-07-09T00:10:33;76378.63;;;-142.53;100.00
4133;BME280;2080;51.038;7.008;2022-07-09T00:12:58;76380.56;;;-142.53;100.00
4133;BME280;2080;51.038;7.008;2022-07-09T00:15:24;76382.50;;;-142.53;100.00
4133;BME280;2080;51.038;7.008;2022-07-09T00:17:50;76378.63;;;-142.53;100.00
4133;BME280;2080;51.038;7.008;2022-07-09T00:20:20;76368.91;;;-142.53;100.00
4133;BME280;2080;51.038;7.008;2022-07-09T00:22:48;76359.19;;;-142.53;100.00
4133;BME280;2080;51.038;7.008;2022-07-09T00:25:13;76359.19;;;-142.53;100.00
4133;BME280;2080;51.038;7.008;2022-07-09T00:27:38;76357.25;;;-142.53;100.00
4133;BME280;2080;51.038;7.008;2022-07-09T00:30:07;76355.31;;;-142.53;100.00
4133;BME280;2080;51.038;7.008;2022-07-09T00:32:35;76361.13;;;-142.53;100.00
4133;BME280;2080;51.038;7.008;2022-07-09T00:35:00;76361.13;;;-142.53;100.00
4133;BME280;2080;51.038;7.008;2022-07-09T00:37:25;76368.91;;;-142.53;100.00
4133;BME280;2080;51.038;7.008;2022-07-09T00:39:53;76374.72;;;-142.53;100.00
4133;BME280;2080;51.038;7.008;2022-07-09T00:42:21;76380.56;;;-142.53;100.00
4133;BME280;2080;51.038;7.008;2022-07-09T00:44:49;76378.63;;;-142.53;100.00
4133;BME280;2080;51.038;7.008;2022-07-09T00:47:14;76382.50;;;-142.53;100.00
4133;BME280;2080;51.038;7.008;2022-07-09T00:49:44;76376.66;;;-142.53;100.00
4133;BME280;2080;51.038;7.008;2022-07-09T00:52:13;76378.63;;;-142.53;100.00
4133;BME280;2080;51.038;7.008;2022-07-09T00:54:44;76386.38;;;-142.53;100.00
4133;BME280;2080;51.038;7.008;2022-07-09T00:57:11;76378.63;;;-142.53;100.00
4133;BME280;2080;51.038;7.008;2022-07-09T00:59:38;76382.50;;;-142.53;100.00
4133;BME280;2080;51.038;7.008;2022-07-09T01:02:06;76380.56;;;-142.53;100.00
4133;BME280;2080;51.038;7.008;2022-07-09T01:04:32;76390.28;;;-142.53;100.00
4133;BME280;2080;51.038;7.008;2022-07-09T01:06:58;76398.03;;;-142.53;100.00
4133;BME280;2080;51.038;7.008;2022-07-09T01:09:24;76401.91;;;-142.53;100.00
4133;BME280;2080;51.038;7.008;2022-07-09T01:11:50;76405.81;;;-142.53;100.00
4133;BME280;2080;51.038;7.008;2022-07-09T01:14:15;76405.81;;;-142.53;100.00
4133;BME280;2080;51.038;7.008;2022-07-09T01:16:41;76401.91;;;-142.53;100.00
4133;BME280;2080;51.038;7.008;2022-07-09T01:19:06;76407.75;;;-142.53;100.00
4133;BME280;2080;51.038;7.008;2022-07-09T01:21:34;76409.69;;;-142.53;100.00
4133;BME280;2080;51.038;7.008;2022-07-09T01:24:00;76413.56;;;-142.53;100.00
4133;BME280;2080;51.038;7.008;2022-07-09T01:26:26;76415.53;;;-142.53;100.00
4133;BME280;2080;51.038;7.008;2022-07-09T01:28:56;76421.34;;;-142.53;100.00
4133;BME280;2080;51.038;7.008;2022-07-09T01:31:21;76425.22;;;-142.53;100.00
4133;BME280;2080;51.038;7.008;2022-07-09T01:33:49;76419.41;;;-142.53;100.00
4133;BME280;2080;51.038;7.008;2022-07-09T01:36:14;76421.34;;;-142.53;100.00
4133;BME280;2080;51.038;7.008;2022-07-09T01:38:42;76413.56;;;-142.53;100.00
4133;BME280;2080;51.038;7.008;2022-07-09T01:41:10;76405.81;;;-142.53;100.00
4133;BME280;2080;51.038;7.008;2022-07-09T01:43:35;76398.03;;;-142.53;100.00
4133;BME280;2080;51.038;7.008;2022-07-09T01:46:01;76392.22;;;-142.53;100.00
4133;BME280;2080;51.038;7.008;2022-07-09T01:48:32;76386.38;;;-142.53;100.00
4133;BME280;2080;51.038;7.008;2022-07-09T01:51:02;76392.22;;;-142.53;100.00
4133;BME280;2080;51.038;7.008;2022-07-09T01:53:28;76390.28;;;-142.53;100.00
4133;BME280;2080;51.038;7.008;2022-07-09T01:55:53;76394.16;;;-142.53;100.00
4133;BME280;2080;51.038;7.008;2022-07-09T01:58:19;76394.16;;;-142.53;100.00
4133;BME280;2080;51.038;7.008;2022-07-09T02:00:44;76401.91;;;-142.53;100.00
4133;BME280;2080;51.038;7.008;2022-07-09T02:03:10;76401.91;;;-142.53;100.00
4133;BME280;2080;51.038;7.008;2022-07-09T02:05:35;76413.56;;;-142.53;100.00
4133;BME280;2080;51.038;7.008;2022-07-09T02:08:01;76415.53;;;-142.53;100.00
4133;BME280;2080;51.038;7.008;2022-07-09T02:10:26;76413.56;;;-142.53;100.00
4133;BME280;2080;51.038;7.008;2022-07-09T02:12:52;76405.81;;;-142.53;100.00
4133;BME280;2080;51.038;7.008;2022-07-09T02:15:19;76398.03;;;-142.53;100.00
4133;BME280;2080;51.038;7.008;2022-07-09T02:17:45;76401.91;;;-142.53;100.00
4133;BME280;2080;51.038;7.008;2022-07-09T02:20:10;76396.09;;;-142.53;100.00
4133;BME280;2080;51.038;7.008;2022-07-09T02:22:37;76399.97;;;-142.53;100.00
4133;BME280;2080;51.038;7.008;2022-07-09T02:25:02;76398.03;;;-142.53;100.00
4133;BME280;2080;51.038;7.008;2022-07-09T02:27:30;76398.03;;;-142.53;100.00
4133;BME280;2080;51.038;7.008;2022-07-09T02:29:55;76396.09;;;-142.53;100.00
4133;BME280;2080;51.038;7.008;2022-07-09T02:32:21;76390.28;;;-142.53;100.00
4133;BME280;2080;51.038;7.008;2022-07-09T02:34:46;76382.50;;;-142.53;100.00
4133;BME280;2080;51.038;7.008;2022-07-09T02:37:11;76368.91;;;-142.53;100.00
4133;BME280;2080;51.038;7.008;2022-07-09T02:39:37;76359.19;;;-142.53;100.00
4133;BME280;2080;51.038;7.008;2022-07-09T02:42:02;76343.66;;;-142.53;100.00
4133;BME280;2080;51.038;7.008;2022-07-09T02:44:28;76332.00;;;-142.53;100.00
4133;BME280;2080;51.038;7.008;2022-07-09T02:46:53;76332.00;;;-142.53;100.00
4133;BME280;2080;51.038;7.008;2022-07-09T02:49:21;76333.94;;;-142.53;100.00
4133;BME280;2080;51.038;7.008;2022-07-09T02:51:48;76335.88;;;-142.53;100.00
4133;BME280;2080;51.038;7.008;2022-07-09T02:54:13;76324.22;;;-142.53;100.00
4133;BME280;2080;51.038;7.008;2022-07-09T02:56:41;76318.41;;;-142.53;100.00
4133;BME280;2080;51.038;7.008;2022-07-09T02:59:06;76308.69;;;-142.53;100.00
4133;BME280;2080;51.038;7.008;2022-07-09T03:01:34;76297.03;;;-142.53;100.00
4133;BME280;2080;51.038;7.008;2022-07-09T03:04:02;76285.38;;;-142.53;100.00
4133;BME280;2080;51.038;7.008;2022-07-09T03:06:30;76285.38;;;-142.53;100.00
4133;BME280;2080;51.038;7.008;2022-07-09T03:08:55;76265.97;;;-142.53;100.00
4133;BME280;2080;51.038;7.008;2022-07-09T03:11:23;76269.84;;;-142.53;100.00
4133;BME280;2080;51.038;7.008;2022-07-09T03:13:48;76265.97;;;-142.53;100.00
4133;BME280;2080;51.038;7.008;2022-07-09T03:16:16;76265.97;;;-142.53;100.00
4133;BME280;2080;51.038;7.008;2022-07-09T03:18:41;76273.72;;;-142.53;100.00
4133;BME280;2080;51.038;7.008;2022-07-09T03:21:09;76265.97;;;-142.53;100.00
4133;BME280;2080;51.038;7.008;2022-07-09T03:23:34;76260.13;;;-142.53;100.00
4133;BME280;2080;51.038;7.008;2022-07-09T03:26:04;76252.38;;;-142.53;100.00
4133;BME280;2080;51.038;7.008;2022-07-09T03:28:29;76246.53;;;-142.53;100.00
4133;BME280;2080;51.038;7.008;2022-07-09T03:30:55;76242.66;;;-142.53;100.00
4133;BME280;2080;51.038;7.008;2022-07-09T03:33:21;76238.78;;;-142.53;100.00
4133;BME280;2080;51.038;7.008;2022-07-09T03:35:51;76231.00;;;-142.53;100.00
4133;BME280;2080;51.038;7.008;2022-07-09T03:38:20;76231.00;;;-142.53;100.00
4133;BME280;2080;51.038;7.008;2022-07-09T03:40:50;76234.88;;;-142.53;100.00
4133;BME280;2080;51.038;7.008;2022-07-09T03:43:16;76238.78;;;-142.53;100.00
4133;BME280;2080;51.038;7.008;2022-07-09T03:45:43;76246.53;;;-142.53;100.00
4133;BME280;2080;51.038;7.008;2022-07-09T03:48:11;76258.19;;;-142.53;100.00
4133;BME280;2080;51.038;7.008;2022-07-09T03:50:36;76265.97;;;-142.53;100.00
4133;BME280;2080;51.038;7.008;2022-07-09T03:53:04;76267.91;;;-142.53;100.00
4133;BME280;2080;51.038;7.008;2022-07-09T03:55:30;76277.63;;;-142.53;100.00
4133;BME280;2080;51.038;7.008;2022-07-09T03:57:57;76289.28;;;-142.53;100.00
4133;BME280;2080;51.038;7.008;2022-07-09T04:00:23;76300.91;;;-142.53;100.00
4133;BME280;2080;51.038;7.008;2022-07-09T04:02:48;76302.88;;;-142.53;100.00
4133;BME280;2080;51.038;7.008;2022-07-09T04:05:16;76320.34;;;-142.53;100.00
4133;BME280;2080;51.038;7.008;2022-07-09T04:07:43;76328.13;;;-142.53;100.00
4133;BME280;2080;51.038;7.008;2022-07-09T04:10:13;76332.00;;;-142.53;100.00
4133;BME280;2080;51.038;7.008;2022-07-09T04:12:39;76332.00;;;-142.53;100.00
4133;BME280;2080;51.038;7.008;2022-07-09T04:15:07;76328.13;;;-142.53;100.00
4133;BME280;2080;51.038;7.008;2022-07-09T04:17:32;76316.47;;;-142.53;100.00
4133;BME280;2080;51.038;7.008;2022-07-09T04:20:02;76314.50;;;-142.53;100.00
4133;BME280;2080;51.038;7.008;2022-07-09T04:22:27;76293.16;;;-142.53;100.00
4133;BME280;2080;51.038;7.008;2022-07-09T04:24:55;76273.72;;;-142.53;100.00
4133;BME280;2080;51.038;7.008;2022-07-09T04:27:20;76254.31;;;-142.53;100.00
4133;BME280;2080;51.038;7.008;2022-07-09T04:29:46;76227.13;;;-142.53;100.00
4133;BME280;2080;51.038;7.008;2022-07-09T04:32:11;76192.16;;;-142.53;100.00
4133;BME280;2080;51.038;7.008;2022-07-09T04:34:38;76161.09;;;-142.53;100.00
4133;BME280;2080;51.038;7.008;2022-07-09T04:37:03;76135.84;;;-142.53;100.00
4133;BME280;2080;51.038;7.008;2022-07-09T04:39:29;76133.88;;;-142.53;100.00
4133;BME280;2080;51.038;7.008;2022-07-09T04:41:54;76141.66;;;-142.53;100.00
4133;BME280;2080;51.038;7.008;2022-07-09T04:44:22;76157.19;;;-142.53;100.00
4133;BME280;2080;51.038;7.008;2022-07-09T04:46:47;76155.25;;;-142.53;100.00
4133;BME280;2080;51.038;7.008;2022-07-09T04:49:12;76153.31;;;-142.53;100.00
4133;BME280;2080;51.038;7.008;2022-07-09T04:51:38;76159.13;;;-142.53;100.00
4133;BME280;2080;51.038;7.008;2022-07-09T04:54:03;76153.31;;;-142.53;100.00
4133;BME280;2080;51.038;7.008;2022-07-09T04:56:29;76133.88;;;-142.53;100.00
4133;BME280;2080;51.038;7.008;2022-07-09T04:58:59;76106.69;;;-142.53;100.00
4133;BME280;2080;51.038;7.008;2022-07-09T05:01:27;76097.00;;;-142.53;100.00
4133;BME280;2080;51.038;7.008;2022-07-09T05:03:54;76083.41;;;-142.53;100.00
4133;BME280;2080;51.038;7.008;2022-07-09T05:06:20;76077.56;;;-142.53;100.00
4133;BME280;2080;51.038;7.008;2022-07-09T05:08:45;76048.44;;;-142.53;100.00
4133;BME280;2080;51.038;7.008;2022-07-09T05:11:13;76017.34;;;-142.53;100.00
4133;BME280;2080;51.038;7.008;2022-07-09T05:13:39;76005.72;;;-142.53;100.00
4133;BME280;2080;51.038;7.008;2022-07-09T05:16:08;75997.94;;;-142.53;100.00
4133;BME280;2080;51.038;7.008;2022-07-09T05:18:35;75990.16;;;-142.53;99.27
4133;BME280;2080;51.038;7.008;2022-07-09T05:21:03;75986.28;;;-142.53;99.11
4133;BME280;2080;51.038;7.008;2022-07-09T05:23:31;75990.16;;;-142.53;99.61
4133;BME280;2080;51.038;7.008;2022-07-09T05:26:00;75962.97;;;-142.53;98.65
4133;BME280;2080;51.038;7.008;2022-07-09T05:28:25;75941.63;;;-142.53;98.53
4133;BME280;2080;51.038;7.008;2022-07-09T05:30:53;75900.84;;;-142.53;97.85
4133;BME280;2080;51.038;7.008;2022-07-09T05:33:19;75877.53;;;-142.53;96.10
4133;BME280;2080;51.038;7.008;2022-07-09T05:35:47;75844.50;;;-142.53;94.42
4133;BME280;2080;51.038;7.008;2022-07-09T05:38:12;75836.75;;;-142.53;93.81
4133;BME280;2080;51.038;7.008;2022-07-09T05:40:37;75819.28;;;-142.53;93.39
4133;BME280;2080;51.038;7.008;2022-07-09T05:43:03;75803.72;;;-142.53;92.33
4133;BME280;2080;51.038;7.008;2022-07-09T05:45:31;75797.91;;;-142.53;91.92
4133;BME280;2080;51.038;7.008;2022-07-09T05:47:56;75774.59;;;-142.53;91.36
4133;BME280;2080;51.038;7.008;2022-07-09T05:50:24;75780.44;;;-142.53;91.23
4133;BME280;2080;51.038;7.008;2022-07-09T05:52:50;75788.19;;;-142.53;91.09
4133;BME280;2080;51.038;7.008;2022-07-09T05:55:16;75821.22;;;-142.53;92.19
4133;BME280;2080;51.038;7.008;2022-07-09T05:57:41;75830.91;;;-142.53;92.84
4133;BME280;2080;51.038;7.008;2022-07-09T06:00:09;75832.88;;;-142.53;93.41
4133;BME280;2080;51.038;7.008;2022-07-09T06:02:34;75842.56;;;-142.53;93.87
4133;BME280;2080;51.038;7.008;2022-07-09T06:05:00;75834.81;;;-142.53;93.79
4133;BME280;2080;51.038;7.008;2022-07-09T06:07:27;75807.63;;;-142.53;92.55
4133;BME280;2080;51.038;7.008;2022-07-09T06:09:55;75795.97;;;-142.53;92.38
4133;BME280;2080;51.038;7.008;2022-07-09T06:12:21;75807.63;;;-142.53;92.08
4133;BME280;2080;51.038;7.008;2022-07-09T06:14:48;75832.88;;;-142.53;92.99
4133;BME280;2080;51.038;7.008;2022-07-09T06:17:13;75856.16;;;-142.53;94.99
4133;BME280;2080;51.038;7.008;2022-07-09T06:19:39;75885.28;;;-142.53;96.69
4133;BME280;2080;51.038;7.008;2022-07-09T06:22:09;75896.94;;;-142.53;98.62
4133;BME280;2080;51.038;7.008;2022-07-09T06:24:36;75900.84;;;-142.53;99.65
4133;BME280;2080;51.038;7.008;2022-07-09T06:27:05;75896.94;;;-142.53;99.98
4133;BME280;2080;51.038;7.008;2022-07-09T06:29:33;75889.19;;;-142.53;99.92
4133;BME280;2080;51.038;7.008;2022-07-09T06:31:58;75898.91;;;-142.53;100.00
4133;BME280;2080;51.038;7.008;2022-07-09T06:34:25;75893.06;;;-142.53;100.00
4133;BME280;2080;51.038;7.008;2022-07-09T06:36:53;75910.53;;;-142.53;100.00
4133;BME280;2080;51.038;7.008;2022-07-09T06:39:21;75908.59;;;-142.53;100.00
4133;BME280;2080;51.038;7.008;2022-07-09T06:42:06;75904.72;;;-142.53;100.00
4133;BME280;2080;51.038;7.008;2022-07-09T06:44:36;75904.72;;;-142.53;100.00
4133;BME280;2080;51.038;7.008;2022-07-09T06:47:02;75891.13;;;-142.53;100.00
4133;BME280;2080;51.038;7.008;2022-07-09T06:49:28;75881.41;;;-142.53;100.00
4133;BME280;2080;51.038;7.008;2022-07-09T06:51:56;75865.88;;;-142.53;100.00
4133;BME280;2080;51.038;7.008;2022-07-09T06:54:21;75850.34;;;-142.53;99.39
4133;BME280;2080;51.038;7.008;2022-07-09T06:56:49;75838.69;;;-142.53;97.69
4133;BME280;2080;51.038;7.008;2022-07-09T06:59:15;75832.88;;;-142.53;95.32
4133;BME280;2080;51.038;7.008;2022-07-09T07:01:41;75815.38;;;-142.53;94.25
4133;BME280;2080;51.038;7.008;2022-07-09T07:04:09;75792.09;;;-142.53;91.75
4133;BME280;2080;51.038;7.008;2022-07-09T07:06:37;75782.38;;;-142.53;88.88
4133;BME280;2080;51.038;7.008;2022-07-09T07:09:07;75749.34;;;-142.53;87.99
4133;BME280;2080;51.038;7.008;2022-07-09T07:11:35;75726.06;;;-142.53;87.35
4133;BME280;2080;51.038;7.008;2022-07-09T07:14:05;75704.69;;;-142.53;85.00
4133;BME280;2080;51.038;7.008;2022-07-09T07:16:31;75691.09;;;-142.53;83.42
4133;BME280;2080;51.038;7.008;2022-07-09T07:18:56;75671.69;;;-142.53;83.37
4133;BME280;2080;51.038;7.008;2022-07-09T07:21:26;75644.50;;;-142.53;81.88
4133;BME280;2080;51.038;7.008;2022-07-09T07:23:56;75613.41;;;-142.53;80.07
4133;BME280;2080;51.038;7.008;2022-07-09T07:26:23;75576.53;;;-142.53;79.48
4133;BME280;2080;51.038;7.008;2022-07-09T07:28:49;75555.16;;;-142.53;78.63
4133;BME280;2080;51.038;7.008;2022-07-09T07:31:17;75570.69;;;-142.53;78.33
4133;BME280;2080;51.038;7.008;2022-07-09T07:33:42;75535.75;;;-142.53;78.07
4133;BME280;2080;51.038;7.008;2022-07-09T07:36:10;75539.63;;;-142.53;77.01
4133;BME280;2080;51.038;7.008;2022-07-09T07:38:36;75535.75;;;-142.53;76.74
4133;BME280;2080;51.038;7.008;2022-07-09T07:41:01;75559.06;;;-142.53;77.72
4133;BME280;2080;51.038;7.008;2022-07-09T07:43:26;75570.69;;;-142.53;77.72
4133;BME280;2080;51.038;7.008;2022-07-09T07:45:52;75570.69;;;-142.53;78.23
4133;BME280;2080;51.038;7.008;2022-07-09T07:48:17;75578.47;;;-142.53;78.48
4133;BME280;2080;51.038;7.008;2022-07-09T07:50:45;75578.47;;;-142.53;78.42
4133;BME280;2080;51.038;7.008;2022-07-09T07:53:15;75586.25;;;-142.53;78.30
4133;BME280;2080;51.038;7.008;2022-07-09T07:55:43;75582.34;;;-142.53;78.47
4133;BME280;2080;51.038;7.008;2022-07-09T07:58:08;75582.34;;;-142.53;78.22
4133;BME280;2080;51.038;7.008;2022-07-09T08:00:34;75594.00;;;-142.53;78.29
4133;BME280;2080;51.038;7.008;2022-07-09T08:03:02;75609.53;;;-142.53;77.82
4133;BME280;2080;51.038;7.008;2022-07-09T08:05:33;75613.41;;;-142.53;77.60
4133;BME280;2080;51.038;7.008;2022-07-09T08:07:58;75627.00;;;-142.53;79.49
4133;BME280;2080;51.038;7.008;2022-07-09T08:10:23;75632.84;;;-142.53;77.05
4133;BME280;2080;51.038;7.008;2022-07-09T08:12:51;75617.31;;;-142.53;78.77
4133;BME280;2080;51.038;7.008;2022-07-09T08:15:19;75568.75;;;-142.53;77.59
4133;BME280;2080;51.038;7.008;2022-07-09T08:17:44;75539.63;;;-142.53;75.57
4133;BME280;2080;51.038;7.008;2022-07-09T08:20:12;75498.84;;;-142.53;73.13
4133;BME280;2080;51.038;7.008;2022-07-09T08:22:38;75479.44;;;-142.53;71.61
4133;BME280;2080;51.038;7.008;2022-07-09T08:25:07;75485.25;;;-142.53;70.08
4133;BME280;2080;51.038;7.008;2022-07-09T08:27:34;75504.69;;;-142.53;69.72
4133;BME280;2080;51.038;7.008;2022-07-09T08:30:00;75504.69;;;-142.53;70.03
4133;BME280;2080;51.038;7.008;2022-07-09T08:32:25;75502.75;;;-142.53;69.25
4133;BME280;2080;51.038;7.008;2022-07-09T08:34:54;75465.84;;;-142.53;68.85
4133;BME280;2080;51.038;7.008;2022-07-09T08:37:24;75430.88;;;-142.53;67.91
4133;BME280;2080;51.038;7.008;2022-07-09T08:39:54;75489.16;;;-142.53;69.10
4133;BME280;2080;51.038;7.008;2022-07-09T08:42:19;75430.88;;;-142.53;67.87
4133;BME280;2080;51.038;7.008;2022-07-09T08:44:47;75413.41;;;-142.53;65.66
4133;BME280;2080;51.038;7.008;2022-07-09T08:47:17;75423.13;;;-142.53;64.57
4133;BME280;2080;51.038;7.008;2022-07-09T08:49:43;75403.72;;;-142.53;64.69
4133;BME280;2080;51.038;7.008;2022-07-09T08:52:15;75357.09;;;-142.53;63.45
4133;BME280;2080;51.038;7.008;2022-07-09T08:54:42;75287.19;;;-142.53;62.23
4133;BME280;2080;51.038;7.008;2022-07-09T08:57:08;75240.59;;;-142.53;60.02
4133;BME280;2080;51.038;7.008;2022-07-09T08:59:33;75178.47;;;-142.53;57.80
4133;BME280;2080;51.038;7.008;2022-07-09T09:02:06;75145.47;;;-142.53;56.04
4133;BME280;2080;51.038;7.008;2022-07-09T09:04:37;75143.53;;;-142.53;55.11
4133;BME280;2080;51.038;7.008;2022-07-09T09:07:15;75143.53;;;-142.53;53.95
4133;BME280;2080;51.038;7.008;2022-07-09T09:09:44;75166.81;;;-142.53;53.11
4133;BME280;2080;51.038;7.008;2022-07-09T09:12:11;75199.81;;;-142.53;54.51
4133;BME280;2080;51.038;7.008;2022-07-09T09:14:36;75217.31;;;-142.53;54.98
4133;BME280;2080;51.038;7.008;2022-07-09T09:17:09;75211.47;;;-142.53;54.77
4133;BME280;2080;51.038;7.008;2022-07-09T09:19:38;75252.25;;;-142.53;54.49
4133;BME280;2080;51.038;7.008;2022-07-09T09:22:04;75232.84;;;-142.53;55.16
4133;BME280;2080;51.038;7.008;2022-07-09T09:24:30;75232.84;;;-142.53;54.69
4133;BME280;2080;51.038;7.008;2022-07-09T09:26:57;75228.94;;;-142.53;54.59
4133;BME280;2080;51.038;7.008;2022-07-09T09:29:23;75215.34;;;-142.53;54.94
4133;BME280;2080;51.038;7.008;2022-07-09T09:31:54;75217.31;;;-142.53;55.59
4133;BME280;2080;51.038;7.008;2022-07-09T09:34:19;75221.19;;;-142.53;54.20
4133;BME280;2080;51.038;7.008;2022-07-09T09:36:50;75182.34;;;-142.53;53.32
4133;BME280;2080;51.038;7.008;2022-07-09T09:39:19;75151.28;;;-142.53;52.00
4133;BME280;2080;51.038;7.008;2022-07-09T09:41:56;75129.94;;;-142.53;51.08
4133;BME280;2080;51.038;7.008;2022-07-09T09:44:33;75100.81;;;-142.53;51.66
4133;BME280;2080;51.038;7.008;2022-07-09T09:47:06;75040.63;;;-142.53;50.27
4133;BME280;2080;51.038;7.008;2022-07-09T09:49:39;74988.19;;;-142.53;50.10
4133;BME280;2080;51.038;7.008;2022-07-09T09:52:11;74935.78;;;-142.53;48.44
4133;BME280;2080;51.038;7.008;2022-07-09T09:54:43;74929.94;;;-142.53;47.77
4133;BME280;2080;51.038;7.008;2022-07-09T09:57:12;74906.66;;;-142.53;47.37
4133;BME280;2080;51.038;7.008;2022-07-09T09:59:42;74906.66;;;-142.53;46.95
4133;BME280;2080;51.038;7.008;2022-07-09T10:02:10;74856.16;;;-142.53;47.05
4133;BME280;2080;51.038;7.008;2022-07-09T10:04:37;74834.81;;;-142.53;45.69
4133;BME280;2080;51.038;7.008;2022-07-09T10:07:07;74801.81;;;-142.53;45.26
4133;BME280;2080;51.038;7.008;2022-07-09T10:09:32;74766.88;;;-142.53;44.56
4133;BME280;2080;51.038;7.008;2022-07-09T10:11:58;74759.09;;;-142.53;43.21
4133;BME280;2080;51.038;7.008;2022-07-09T10:16:49;74720.28;;;-142.53;42.17
4133;BME280;2080;51.038;7.008;2022-07-09T10:19:30;74745.50;;;-142.53;42.43
4133;BME280;2080;51.038;7.008;2022-07-09T10:22:00;74762.97;;;-142.53;42.33
4133;BME280;2080;51.038;7.008;2022-07-09T10:24:28;74813.47;;;-142.53;42.20
4133;BME280;2080;51.038;7.008;2022-07-09T10:27:06;74827.03;;;-142.53;43.08
4133;BME280;2080;51.038;7.008;2022-07-09T10:29:35;74825.09;;;-142.53;42.74
4133;BME280;2080;51.038;7.008;2022-07-09T10:32:03;74774.63;;;-142.53;42.77
4133;BME280;2080;51.038;7.008;2022-07-09T10:34:55;74739.69;;;-142.53;42.06
4133;BME280;2080;51.038;7.008;2022-07-09T10:40:10;74696.97;;;-142.53;41.74
4133;BME280;2080;51.038;7.008;2022-07-09T10:42:36;74696.97;;;-142.53;41.19
4133;BME280;2080;51.038;7.008;2022-07-09T10:45:02;74720.28;;;-142.53;41.13
4133;BME280;2080;51.038;7.008;2022-07-09T10:47:41;74755.22;;;-142.53;41.25
4133;BME280;2080;51.038;7.008;2022-07-09T10:50:10;74755.22;;;-142.53;41.65
4133;BME280;2080;51.038;7.008;2022-07-09T10:52:35;74743.56;;;-142.53;41.47
4133;BME280;2080;51.038;7.008;2022-07-09T10:55:03;74759.09;;;-142.53;41.21
4133;BME280;2080;51.038;7.008;2022-07-09T10:57:29;74786.28;;;-142.53;42.36
4133;BME280;2080;51.038;7.008;2022-07-09T10:59:54;74801.81;;;-142.53;42.29
4133;BME280;2080;51.038;7.008;2022-07-09T11:02:23;74887.22;;;-142.53;43.10
4133;BME280;2080;51.038;7.008;2022-07-09T11:04:49;74906.66;;;-142.53;44.53
4133;BME280;2080;51.038;7.008;2022-07-09T11:07:22;74871.69;;;-142.53;43.62
4133;BME280;2080;51.038;7.008;2022-07-09T11:09:48;74844.53;;;-142.53;43.68
4133;BME280;2080;51.038;7.008;2022-07-09T11:12:21;74805.69;;;-142.53;43.48
4133;BME280;2080;51.038;7.008;2022-07-09T11:14:50;74770.75;;;-142.53;43.18
4133;BME280;2080;51.038;7.008;2022-07-09T11:17:19;74753.28;;;-142.53;42.76
4133;BME280;2080;51.038;7.008;2022-07-09T11:19:48;74759.09;;;-142.53;42.74
4133;BME280;2080;51.038;7.008;2022-07-09T11:22:15;74801.81;;;-142.53;42.60
4133;BME280;2080;51.038;7.008;2022-07-09T11:24:41;74860.06;;;-142.53;42.91
4133;BME280;2080;51.038;7.008;2022-07-09T11:27:07;74840.63;;;-142.53;43.30
4133;BME280;2080;51.038;7.008;2022-07-09T11:29:35;74817.34;;;-142.53;43.45
4133;BME280;2080;51.038;7.008;2022-07-09T11:32:01;74764.91;;;-142.53;43.00
4133;BME280;2080;51.038;7.008;2022-07-09T11:34:27;74731.91;;;-142.53;42.03
4133;BME280;2080;51.038;7.008;2022-07-09T11:36:57;74774.63;;;-142.53;42.09
4133;BME280;2080;51.038;7.008;2022-07-09T11:39:24;74813.47;;;-142.53;42.66
4133;BME280;2080;51.038;7.008;2022-07-09T11:41:52;74850.34;;;-142.53;42.82
4133;BME280;2080;51.038;7.008;2022-07-09T11:44:30;74889.19;;;-142.53;43.40
4133;BME280;2080;51.038;7.008;2022-07-09T11:47:16;74902.75;;;-142.53;43.11
4133;BME280;2080;51.038;7.008;2022-07-09T11:49:46;74898.88;;;-142.53;43.64
4133;BME280;2080;51.038;7.008;2022-07-09T11:52:23;74863.94;;;-142.53;43.84
4133;BME280;2080;51.038;7.008;2022-07-09T11:55:06;74794.03;;;-142.53;43.38
4133;BME280;2080;51.038;7.008;2022-07-09T11:57:34;74739.69;;;-142.53;42.44
4133;BME280;2080;51.038;7.008;2022-07-09T12:00:00;74696.97;;;-142.53;41.61
4133;BME280;2080;51.038;7.008;2022-07-09T12:04:56;74654.25;;;-142.53;41.22
4133;BME280;2080;51.038;7.008;2022-07-09T12:07:22;74638.72;;;-142.53;40.42
4133;BME280;2080;51.038;7.008;2022-07-09T12:10:00;74599.91;;;-142.53;40.58
4133;BME280;2080;51.038;7.008;2022-07-09T12:12:27;74654.25;;;-142.53;41.32
4133;BME280;2080;51.038;7.008;2022-07-09T12:14:53;74640.69;;;-142.53;40.82
4133;BME280;2080;51.038;7.008;2022-07-09T12:17:23;74615.44;;;-142.53;40.32
4133;BME280;2080;51.038;7.008;2022-07-09T12:19:48;74615.44;;;-142.53;40.54
4133;BME280;2080;51.038;7.008;2022-07-09T12:22:14;74617.38;;;-142.53;40.38
4133;BME280;2080;51.038;7.008;2022-07-09T12:24:39;74615.44;;;-142.53;40.52
4133;BME280;2080;51.038;7.008;2022-07-09T12:27:05;74576.59;;;-142.53;40.23
4133;BME280;2080;51.038;7.008;2022-07-09T12:29:30;74570.78;;;-142.53;39.76
4133;BME280;2080;51.038;7.008;2022-07-09T12:31:55;74605.72;;;-142.53;39.76
4133;BME280;2080;51.038;7.008;2022-07-09T12:34:23;74640.69;;;-142.53;40.19
4133;BME280;2080;51.038;7.008;2022-07-09T12:36:49;74675.63;;;-142.53;41.08
4133;BME280;2080;51.038;7.008;2022-07-09T12:39:14;74654.25;;;-142.53;40.87
4133;BME280;2080;51.038;7.008;2022-07-09T12:41:39;74654.25;;;-142.53;40.67
4133;BME280;2080;51.038;7.008;2022-07-09T12:44:07;74611.56;;;-142.53;40.40
4133;BME280;2080;51.038;7.008;2022-07-09T12:46:35;74580.50;;;-142.53;40.04
4133;BME280;2080;51.038;7.008;2022-07-09T12:49:03;74555.25;;;-142.53;40.26
4133;BME280;2080;51.038;7.008;2022-07-09T12:51:30;74524.19;;;-142.53;39.88
4133;BME280;2080;51.038;7.008;2022-07-09T12:53:56;74495.06;;;-142.53;39.84
4133;BME280;2080;51.038;7.008;2022-07-09T12:56:21;74491.19;;;-142.53;39.39
4133;BME280;2080;51.038;7.008;2022-07-09T12:58:47;74530.03;;;-142.53;39.96
4133;BME280;2080;51.038;7.008;2022-07-09T13:01:12;74590.19;;;-142.53;40.53
4133;BME280;2080;51.038;7.008;2022-07-09T13:03:38;74654.25;;;-142.53;41.32